Time;durP1;ratioP1;P1;durP2;ratioP2;P2;SDS_P1;SDS_P2;PMS_P1;PMS_P2;Temp;Humidity;BMP_temperature;BMP_pressure;BME280_temperature;BME280_humidity;BME280_pressure;Samples;Min_cycle;Max_cycle;Signal;HPM_P1;HPM_P2
2022/02/16 00:00:06;;;;;;;17.67;4.63;;;;;;;7.22;100.00;98734.50;5110778;28;20040;-92
2022/02/16 00:02:32;;;;;;;15.05;4.95;;;;;;;7.22;100.00;98734.50;5110915;28;20039;-95
2022/02/16 00:04:58;;;;;;;18.88;4.72;;;;;;;7.27;100.00;98738.81;5110809;28;20040;-94
2022/02/16 00:07:23;;;;;;;17.85;4.95;;;;;;;7.33;100.00;98737.84;5111096;28;20044;-93
2022/02/16 00:09:49;;;;;;;15.10;5.20;;;;;;;7.27;100.00;98735.31;5111110;28;20451;-95
2022/02/16 00:12:16;;;;;;;15.02;5.20;;;;;;;7.14;100.00;98710.81;5110848;28;20040;-93
2022/02/16 00:14:42;;;;;;;19.55;5.47;;;;;;;7.29;100.00;98729.09;5110785;28;20134;-94
2022/02/16 00:17:08;;;;;;;21.63;5.80;;;;;;;7.29;100.00;98744.09;5107321;28;20483;-94
2022/02/16 00:19:34;;;;;;;16.60;6.03;;;;;;;7.28;100.00;98737.06;5110396;28;20051;-95
2022/02/16 00:22:00;;;;;;;17.65;6.47;;;;;;;7.24;100.00;98736.22;5110518;28;20036;-93
2022/02/16 00:24:26;;;;;;;21.65;7.53;;;;;;;7.25;100.00;98740.63;5110845;28;20032;-94
2022/02/16 00:26:52;;;;;;;14.65;7.05;;;;;;;7.14;100.00;98721.38;5110336;28;20039;-94
2022/02/16 00:29:19;;;;;;;17.30;6.43;;;;;;;7.24;100.00;98724.75;5110500;28;20154;-94
2022/02/16 00:31:45;;;;;;;18.20;7.55;;;;;;;7.16;100.00;98719.59;5097465;28;20048;-94
2022/02/16 00:34:11;;;;;;;17.25;6.53;;;;;;;7.16;100.00;98719.59;5096677;28;20063;-93
2022/02/16 00:36:37;;;;;;;12.00;5.93;;;;;;;7.22;100.00;98739.78;5096935;28;20044;-95
2022/02/16 00:39:03;;;;;;;14.65;6.35;;;;;;;7.12;100.00;98742.56;5096540;28;20039;-93
2022/02/16 00:41:29;;;;;;;17.55;6.40;;;;;;;7.11;100.00;98726.69;5096598;28;20559;-93
2022/02/16 00:43:55;;;;;;;12.80;6.78;;;;;;;7.08;100.00;98721.47;5096506;28;20036;-94
2022/02/16 00:46:23;;;;;;;13.35;5.65;;;;;;;7.10;100.00;98722.31;5095679;28;20048;-93
2022/02/16 00:48:49;;;;;;;15.85;5.90;;;;;;;7.16;100.00;98730.19;5096964;28;20040;-93
2022/02/16 00:51:15;;;;;;;12.43;6.15;;;;;;;7.12;100.00;98712.59;5096676;28;20439;-93
2022/02/16 00:53:41;;;;;;;22.77;6.53;;;;;;;7.08;100.00;98708.25;5096092;28;20052;-94
2022/02/16 00:56:06;;;;;;;14.13;5.93;;;;;;;7.03;100.00;98705.69;5096855;28;20408;-93
2022/02/16 00:58:32;;;;;;;16.70;5.82;;;;;;;7.06;100.00;98724.13;5096312;28;20111;-94
2022/02/16 01:00:58;;;;;;;16.15;5.70;;;;;;;7.03;100.00;98718.91;5095333;28;20043;-96
2022/02/16 01:03:25;;;;;;;12.10;6.00;;;;;;;7.08;100.00;98718.81;5096469;28;20036;-93
2022/02/16 01:05:51;;;;;;;15.65;6.20;;;;;;;7.11;100.00;98730.25;5096075;28;20044;-93
2022/02/16 01:08:17;;;;;;;14.20;5.55;;;;;;;7.07;100.00;98719.69;5095912;28;20036;-94
2022/02/16 01:10:43;;;;;;;17.02;5.82;;;;;;;6.99;100.00;98714.53;5096059;28;20447;-94
2022/02/16 01:13:09;;;;;;;20.13;6.18;;;;;;;6.87;100.00;98697.06;5096412;28;20130;-94
2022/02/16 01:15:35;;;;;;;14.40;5.35;;;;;;;6.96;100.00;98701.34;5095184;28;20044;-95
2022/02/16 01:18:01;;;;;;;13.38;5.03;;;;;;;6.92;100.00;98712.88;5095847;28;20044;-94
2022/02/16 01:20:29;;;;;;;10.60;5.00;;;;;;;6.86;100.00;98700.59;5095428;28;20574;-93
2022/02/16 01:22:54;;;;;;;13.38;4.88;;;;;;;6.82;100.00;98705.97;5096544;28;20052;-93
2022/02/16 01:25:20;;;;;;;15.48;4.90;;;;;;;6.91;99.11;98721.69;5087419;28;20032;-93
2022/02/16 01:27:46;;;;;;;12.20;4.68;;;;;;;6.90;98.27;98727.88;5095573;28;20043;-94
2022/02/16 01:30:13;;;;;;;10.45;4.63;;;;;;;6.78;97.67;98715.69;5094455;28;20032;-93
2022/02/16 01:32:39;;;;;;;16.45;6.65;;;;;;;6.78;98.84;98716.56;5096345;28;20123;-93
2022/02/16 01:35:06;;;;;;;13.90;5.60;;;;;;;6.87;100.00;98728.78;5095775;28;20124;-92
2022/02/16 01:37:34;;;;;;;14.18;5.63;;;;;;;6.87;100.00;98727.91;5095502;28;20047;-92
2022/02/16 01:39:59;;;;;;;20.50;6.03;;;;;;;6.68;100.00;98700.81;5095479;28;20119;-92
2022/02/16 01:42:25;;;;;;;19.13;4.95;;;;;;;6.72;100.00;98714.00;5094691;28;20063;-92
2022/02/16 01:44:51;;;;;;;14.77;4.97;;;;;;;6.70;100.00;98723.72;5095305;28;20044;-93
2022/02/16 01:47:17;;;;;;;12.10;4.30;;;;;;;6.62;100.00;98704.44;5094306;28;20420;-93
2022/02/16 01:49:44;;;;;;;13.48;4.30;;;;;;;6.61;100.00;98710.59;5095681;28;20036;-92
2022/02/16 01:52:11;;;;;;;14.82;3.67;;;;;;;6.63;100.00;98707.94;5095407;28;20048;-93
2022/02/16 01:54:38;;;;;;;12.77;4.35;;;;;;;6.63;100.00;98700.03;5095483;28;20046;-91
2022/02/16 01:57:04;;;;;;;14.32;4.55;;;;;;;6.77;100.00;98728.03;5095617;28;20058;-92
2022/02/16 01:59:31;;;;;;;16.00;4.32;;;;;;;6.66;100.00;98711.44;5095179;28;20122;-92
2022/02/16 02:01:57;;;;;;;14.80;4.60;;;;;;;6.78;100.00;98723.63;5089440;28;20044;-93
2022/02/16 02:04:23;;;;;;;13.18;4.25;;;;;;;6.68;100.00;98704.38;5094943;28;20040;-92
2022/02/16 02:06:48;;;;;;;17.13;4.70;;;;;;;6.79;100.00;98705.09;5095085;28;20097;-92
2022/02/16 02:09:15;;;;;;;16.10;4.80;;;;;;;6.65;100.00;98682.38;5094675;28;20051;-92
2022/02/16 02:11:43;;;;;;;18.33;4.18;;;;;;;6.68;100.00;98691.16;5094892;28;20051;-93
2022/02/16 02:14:11;;;;;;;16.23;5.13;;;;;;;6.82;100.00;98712.13;5095133;28;20036;-92
2022/02/16 02:16:38;;;;;;;18.05;4.53;;;;;;;6.65;100.00;98692.97;5093640;28;20063;-92
2022/02/16 02:19:05;;;;;;;18.10;4.47;;;;;;;6.68;100.00;98695.53;5094672;28;20401;-92
2022/02/16 02:21:32;;;;;;;17.17;4.05;;;;;;;6.78;100.00;98713.91;5099351;28;20047;-93
2022/02/16 02:23:59;;;;;;;13.85;4.00;;;;;;;6.85;100.00;98713.84;5100461;28;20503;-93
2022/02/16 02:26:25;;;;;;;12.07;4.40;;;;;;;6.75;100.00;98690.19;5094753;28;20040;-92
2022/02/16 02:28:51;;;;;;;15.43;4.28;;;;;;;6.86;100.00;98705.03;5094517;28;20156;-92
2022/02/16 02:31:27;;;;;;;16.75;4.07;;;;;;;6.87;100.00;98710.28;5093367;28;20032;-92
2022/02/16 02:33:53;;;;;;;14.10;4.05;;;;;;;6.80;100.00;98705.97;5094317;28;20044;-92
2022/02/16 02:36:18;;;;;;;14.95;4.47;;;;;;;6.85;100.00;98716.47;5094529;28;20047;-93
2022/02/16 02:38:46;;;;;;;16.30;3.90;;;;;;;6.79;100.00;98698.94;5093786;28;20032;-93
2022/02/16 02:41:11;;;;;;;14.70;4.88;;;;;;;6.83;100.00;98705.94;5094029;28;20061;-92
2022/02/16 02:43:40;;;;;;;14.38;4.40;;;;;;;6.80;100.00;98711.25;5094491;28;20044;-92
2022/02/16 02:46:05;;;;;;;11.50;4.05;;;;;;;6.76;100.00;98709.53;5093417;28;20161;-93
2022/02/16 02:48:31;;;;;;;16.15;4.50;;;;;;;6.75;100.00;98700.75;5094330;28;20477;-93
2022/02/16 02:50:57;;;;;;;14.95;5.18;;;;;;;6.75;100.00;98708.69;5094608;28;20036;-92
2022/02/16 02:53:23;;;;;;;15.48;4.10;;;;;;;6.80;100.00;98713.91;5093995;28;20044;-92
2022/02/16 02:55:50;;;;;;;17.52;3.78;;;;;;;6.77;100.00;98701.59;5094193;28;20040;-91
2022/02/16 02:58:16;;;;;;;15.10;5.78;;;;;;;6.79;100.00;98705.09;5094201;28;20047;-93
2022/02/16 03:00:42;;;;;;;16.65;5.82;;;;;;;6.70;100.00;98699.94;5093695;28;20039;-93
2022/02/16 03:03:08;;;;;;;10.45;3.88;;;;;;;6.72;100.00;98691.97;5094187;28;20094;-92
2022/02/16 03:05:33;;;;;;;17.33;4.63;;;;;;;6.82;100.00;98709.47;5094264;28;20098;-93
2022/02/16 03:07:59;;;;;;;15.52;5.10;;;;;;;6.68;100.00;98683.22;5094106;28;20063;-92
2022/02/16 03:10:25;;;;;;;13.57;5.05;;;;;;;6.67;100.00;98676.19;5093991;28;20123;-93
2022/02/16 03:12:52;;;;;;;13.90;5.30;;;;;;;6.73;100.00;98707.81;5094251;28;20068;-92
2022/02/16 03:15:18;;;;;;;12.10;4.25;;;;;;;6.65;100.00;98692.97;5092748;28;20036;-92
2022/02/16 03:17:44;;;;;;;14.00;5.00;;;;;;;6.57;100.00;98679.81;5093858;28;20502;-92
2022/02/16 03:20:10;;;;;;;18.85;5.40;;;;;;;6.61;100.00;98689.47;5093741;28;20052;-93
2022/02/16 03:22:37;;;;;;;18.70;5.65;;;;;;;6.65;100.00;98698.25;5094020;28;20052;-92
2022/02/16 03:25:04;;;;;;;22.80;5.38;;;;;;;6.61;100.00;98700.03;5094122;28;20090;-93
2022/02/16 03:27:30;;;;;;;11.70;3.95;;;;;;;6.64;100.00;98705.31;5084376;28;20048;-92
2022/02/16 03:29:57;;;;;;;17.63;4.55;;;;;;;6.60;100.00;98705.34;5094040;28;20036;-92
2022/02/16 03:32:23;;;;;;;18.77;4.25;;;;;;;6.58;100.00;98708.00;5093114;28;20052;-92
2022/02/16 03:34:48;;;;;;;18.30;4.65;;;;;;;6.60;100.00;98714.16;5093986;28;20032;-94
2022/02/16 03:37:14;;;;;;;18.23;4.70;;;;;;;6.63;100.00;98719.38;5093992;28;20060;-93
2022/02/16 03:39:41;;;;;;;13.15;3.92;;;;;;;6.65;100.00;98737.88;5094055;28;20047;-93
2022/02/16 03:42:07;;;;;;;18.35;4.15;;;;;;;6.60;100.00;98727.38;5093328;28;20044;-92
2022/02/16 03:44:33;;;;;;;13.05;4.20;;;;;;;6.55;100.00;98713.34;5093642;28;20047;-92
2022/02/16 03:47:00;;;;;;;14.88;4.22;;;;;;;6.57;100.00;98717.72;5093824;28;20527;-91
2022/02/16 03:49:26;;;;;;;16.52;4.57;;;;;;;6.65;100.00;98733.47;5093857;28;20039;-92
2022/02/16 03:51:52;;;;;;;17.27;5.40;;;;;;;6.55;100.00;98721.28;5093708;28;20481;-93
2022/02/16 03:54:18;;;;;;;19.17;6.07;;;;;;;6.52;100.00;98730.06;5093643;28;20135;-92
2022/02/16 03:56:44;;;;;;;18.25;6.18;;;;;;;6.55;100.00;98743.28;5093728;28;20442;-92
2022/02/16 03:59:10;;;;;;;13.43;4.35;;;;;;;6.49;100.00;98739.81;5093647;28;20043;-92
2022/02/16 04:01:36;;;;;;;11.90;3.55;;;;;;;6.38;100.00;98730.25;5092297;28;20036;-92
2022/02/16 04:04:04;;;;;;;12.23;3.80;;;;;;;6.50;100.00;98744.19;5093329;28;20032;-93
2022/02/16 04:06:30;;;;;;;13.68;4.93;;;;;;;6.47;100.00;98750.41;5093135;28;20044;-92
2022/02/16 04:08:55;;;;;;;15.80;5.18;;;;;;;6.51;100.00;98741.56;5096731;28;20580;-91
2022/02/16 04:11:26;;;;;;;12.75;4.72;;;;;;;6.54;100.00;98748.56;5097587;28;20040;-91
2022/02/16 04:13:52;;;;;;;16.48;4.70;;;;;;;6.46;100.00;98738.09;5097215;28;20505;-92
2022/02/16 04:16:17;;;;;;;14.13;4.28;;;;;;;6.52;100.00;98747.69;5096426;28;20081;-91
2022/02/16 04:18:43;;;;;;;18.40;5.15;;;;;;;6.51;100.00;98753.91;5097132;28;20044;-92
2022/02/16 04:21:11;;;;;;;11.50;4.53;;;;;;;6.43;100.00;98750.44;5097612;28;20436;-91
2022/02/16 04:23:36;;;;;;;12.25;3.97;;;;;;;6.35;100.00;98746.13;5097332;28;20054;-92
2022/02/16 04:26:03;;;;;;;10.43;4.43;;;;;;;6.37;100.00;98738.19;5096967;28;20047;-91
2022/02/16 04:28:28;;;;;;;12.05;4.13;;;;;;;6.52;100.00;98764.41;5096547;28;20127;-91
2022/02/16 04:30:54;;;;;;;12.02;4.30;;;;;;;6.33;100.00;98747.03;5095210;28;20040;-91
2022/02/16 04:33:20;;;;;;;15.00;4.80;;;;;;;6.40;100.00;98779.53;5096703;28;20044;-90
2022/02/16 04:35:46;;;;;;;10.98;4.47;;;;;;;6.31;100.00;98773.47;5096801;28;20040;-90
2022/02/16 04:38:13;;;;;;;10.95;4.10;;;;;;;6.32;100.00;98779.63;5096411;28;20036;-91
2022/02/16 04:40:39;;;;;;;16.95;5.10;;;;;;;6.33;100.00;98770.78;5096548;28;20131;-91
2022/02/16 04:43:05;;;;;;;16.65;4.82;;;;;;;6.38;100.00;98771.63;5096571;28;20051;-91
2022/02/16 04:45:31;;;;;;;12.15;4.88;;;;;;;6.52;100.00;98776.75;5095201;28;20497;-91
2022/02/16 04:47:57;;;;;;;14.13;6.70;;;;;;;6.57;100.00;98780.22;5096461;28;20089;-90
2022/02/16 04:50:23;;;;;;;16.40;5.95;;;;;;;6.46;100.00;98771.53;5096824;28;20075;-91
2022/02/16 04:52:54;;;;;;;15.77;6.00;;;;;;;6.53;100.00;98797.03;5096160;28;20044;-92
2022/02/16 04:55:22;;;;;;;12.30;5.28;;;;;;;6.52;100.00;98800.53;5095918;28;20050;-91
2022/02/16 04:57:48;;;;;;;13.38;5.90;;;;;;;6.36;100.00;98776.06;5096134;28;20602;-92
2022/02/16 05:00:15;;;;;;;15.10;6.13;;;;;;;6.37;100.00;98781.31;5094799;28;20131;-92
2022/02/16 05:02:41;;;;;;;14.10;5.93;;;;;;;6.45;100.00;98804.16;5096431;28;20488;-91
2022/02/16 05:05:08;;;;;;;15.57;5.90;;;;;;;6.45;100.00;98804.16;5095877;28;20044;-91
2022/02/16 05:07:35;;;;;;;14.95;5.60;;;;;;;6.47;100.00;98795.31;5095914;28;20055;-91
2022/02/16 05:10:01;;;;;;;13.77;6.45;;;;;;;6.47;100.00;98786.50;5095880;28;20123;-92
2022/02/16 05:12:31;;;;;;;12.98;6.75;;;;;;;6.35;100.00;98792.78;5095810;28;20075;-92
2022/02/16 05:14:57;;;;;;;11.68;5.07;;;;;;;6.26;100.00;98798.16;5095742;28;20048;-92
2022/02/16 05:17:22;;;;;;;11.38;5.93;;;;;;;6.26;100.00;98790.22;5094711;28;20443;-92
2022/02/16 05:19:48;;;;;;;16.42;6.40;;;;;;;6.27;100.00;98776.16;5095658;28;20067;-92
2022/02/16 05:22:14;;;;;;;14.07;6.00;;;;;;;6.22;100.00;98796.44;5095726;28;20064;-93
2022/02/16 05:24:41;;;;;;;14.65;6.15;;;;;;;6.14;100.00;98796.50;5095875;28;20062;-92
2022/02/16 05:27:07;;;;;;;15.05;6.57;;;;;;;5.87;100.00;98776.47;5093082;28;20044;-92
2022/02/16 05:29:34;;;;;;;15.20;6.22;;;;;;;5.93;100.00;98781.69;5095330;28;20058;-91
2022/02/16 05:32:00;;;;;;;14.05;5.90;;;;;;;5.99;100.00;98797.53;5084667;28;20035;-92
2022/02/16 05:34:26;;;;;;;14.32;6.25;;;;;;;5.93;100.00;98782.56;5095453;28;20047;-92
2022/02/16 05:36:52;;;;;;;12.55;6.10;;;;;;;5.97;100.00;98797.53;5099922;28;20127;-92
2022/02/16 05:39:18;;;;;;;16.35;6.45;;;;;;;5.80;100.00;98799.38;5107495;28;20118;-92
2022/02/16 05:41:44;;;;;;;13.27;7.22;;;;;;;5.69;100.00;98791.53;5097164;28;20040;-92
2022/02/16 05:44:10;;;;;;;12.23;7.28;;;;;;;5.78;100.00;98801.16;5095579;28;20055;-91
2022/02/16 05:46:37;;;;;;;12.30;6.78;;;;;;;5.73;100.00;98777.44;5093727;28;20044;-92
2022/02/16 05:49:03;;;;;;;13.00;6.53;;;;;;;5.86;100.00;98778.22;5095376;28;20044;-92
2022/02/16 05:51:28;;;;;;;12.25;6.75;;;;;;;5.96;100.00;98789.59;5095390;28;20093;-93
2022/02/16 05:53:54;;;;;;;14.80;7.22;;;;;;;5.99;100.00;98809.84;5094845;28;20036;-92
2022/02/16 05:56:20;;;;;;;17.10;7.00;;;;;;;5.91;100.00;98804.59;5094656;28;20119;-91
2022/02/16 05:58:46;;;;;;;12.20;7.07;;;;;;;5.87;100.00;98805.50;5095228;28;20048;-91
2022/02/16 06:01:12;;;;;;;13.60;7.10;;;;;;;5.80;100.00;98812.56;5093356;28;20449;-92
2022/02/16 06:03:39;;;;;;;13.02;5.68;;;;;;;5.82;100.00;98829.28;5094497;28;20040;-92
2022/02/16 06:06:05;;;;;;;12.05;6.20;;;;;;;5.79;100.00;98818.75;5094926;28;20048;-91
2022/02/16 06:08:31;;;;;;;11.23;6.18;;;;;;;5.71;100.00;98813.50;5095230;28;20044;-92
2022/02/16 06:10:57;;;;;;;13.38;6.57;;;;;;;5.82;100.00;98823.13;5093389;28;20047;-93
2022/02/16 06:13:23;;;;;;;13.13;6.18;;;;;;;5.92;100.00;98838.00;5095102;28;20040;-92
2022/02/16 06:15:49;;;;;;;13.85;6.85;;;;;;;5.82;100.00;98831.03;5093894;28;20036;-93
2022/02/16 06:18:15;;;;;;;12.30;7.03;;;;;;;5.65;100.00;98823.25;5094802;28;20546;-93
2022/02/16 06:20:42;;;;;;;14.32;6.80;;;;;;;5.69;100.00;98839.03;5094819;28;20493;-92
2022/02/16 06:23:08;;;;;;;13.15;6.25;;;;;;;5.78;100.00;98835.47;5094989;28;20039;-92
2022/02/16 06:25:34;;;;;;;13.30;6.88;;;;;;;5.93;100.00;98850.31;5094991;28;20044;-93
2022/02/16 06:28:03;;;;;;;12.55;6.68;;;;;;;5.89;100.00;98844.16;5094581;28;20135;-93
2022/02/16 06:30:29;;;;;;;13.75;6.72;;;;;;;5.94;100.00;98863.53;5094475;28;20036;-91
2022/02/16 06:32:55;;;;;;;11.55;6.38;;;;;;;5.90;100.00;98853.00;5096114;28;20526;-93
2022/02/16 06:35:21;;;;;;;12.35;7.30;;;;;;;6.05;100.00;98852.00;5094415;28;20036;-92
2022/02/16 06:37:48;;;;;;;13.50;7.50;;;;;;;6.07;100.00;98855.50;5094407;28;20551;-91
2022/02/16 06:40:14;;;;;;;12.23;7.55;;;;;;;6.08;100.00;98867.84;5093621;28;20039;-93
2022/02/16 06:42:40;;;;;;;15.82;7.55;;;;;;;5.96;100.00;98852.94;5093892;28;20043;-91
2022/02/16 06:45:08;;;;;;;12.95;8.13;;;;;;;6.10;100.00;98876.63;5093510;28;20393;-93
2022/02/16 06:47:34;;;;;;;15.18;8.68;;;;;;;6.10;100.00;98874.84;5093719;28;20040;-92
2022/02/16 06:50:00;;;;;;;15.40;8.43;;;;;;;6.05;100.00;98867.84;5094526;28;20046;-92
2022/02/16 06:52:26;;;;;;;13.38;8.25;;;;;;;6.08;100.00;98870.47;5094228;28;20044;-91
2022/02/16 06:54:53;;;;;;;14.95;8.18;;;;;;;6.07;100.00;98869.63;5093644;28;20047;-91
2022/02/16 06:57:19;;;;;;;13.50;7.22;;;;;;;6.20;100.00;98870.38;5094164;28;20110;-91
2022/02/16 06:59:45;;;;;;;15.95;8.15;;;;;;;6.26;100.00;98883.53;5093723;28;20067;-91
2022/02/16 07:02:11;;;;;;;13.98;8.13;;;;;;;6.17;100.00;98873.03;5093237;28;20070;-92
2022/02/16 07:04:37;;;;;;;14.32;7.85;;;;;;;5.99;100.00;98858.22;5093882;28;20047;-92
2022/02/16 07:07:03;;;;;;;13.95;7.38;;;;;;;6.13;100.00;98885.38;5093712;28;20040;-93
2022/02/16 07:09:31;;;;;;;13.00;7.53;;;;;;;6.09;100.00;98877.50;5091877;28;20593;-91
2022/02/16 07:11:58;;;;;;;12.40;7.70;;;;;;;6.14;100.00;98879.22;5092120;28;20044;-91
2022/02/16 07:14:25;;;;;;;13.77;8.02;;;;;;;6.21;100.00;98881.84;5093160;28;20446;-91
2022/02/16 07:16:51;;;;;;;13.80;7.43;;;;;;;6.29;100.00;98896.72;5093737;28;20035;-94
2022/02/16 07:19:19;;;;;;;14.10;6.78;;;;;;;6.37;100.00;98902.81;5092629;28;20448;-92
2022/02/16 07:21:45;;;;;;;14.70;6.93;;;;;;;6.38;100.00;98909.84;5093000;28;20043;-91
2022/02/16 07:24:11;;;;;;;11.05;6.55;;;;;;;6.37;100.00;98905.44;5092625;28;20123;-91
2022/02/16 07:26:37;;;;;;;13.00;7.40;;;;;;;6.38;100.00;98899.28;5093763;28;20466;-92
2022/02/16 07:29:05;;;;;;;11.88;6.43;;;;;;;6.56;100.00;98903.53;5094350;28;20072;-92
2022/02/16 07:31:31;;;;;;;9.23;5.85;;;;;;;6.54;100.00;98884.16;5094614;28;20048;-91
2022/02/16 07:33:56;;;;;;;10.82;5.88;;;;;;;6.64;100.00;98884.09;5093009;28;20066;-91
2022/02/16 07:36:22;;;;;;;9.75;6.00;;;;;;;6.83;100.00;98896.25;5093103;28;20051;-91
2022/02/16 07:38:48;;;;;;;12.73;5.78;;;;;;;6.86;100.00;98901.50;5093189;28;20107;-92
2022/02/16 07:41:18;;;;;;;10.73;6.28;;;;;;;6.79;100.00;98911.25;5095191;28;20086;-93
2022/02/16 07:43:44;;;;;;;10.18;5.80;;;;;;;6.88;98.25;98891.78;5098292;28;20044;-93
2022/02/16 07:46:11;;;;;;;13.05;6.80;;;;;;;6.90;98.02;98879.44;5096818;28;20044;-93
2022/02/16 07:48:37;;;;;;;9.15;5.78;;;;;;;6.84;100.00;98891.84;5097885;28;20043;-93
2022/02/16 07:51:03;;;;;;;11.13;6.45;;;;;;;6.72;100.00;98895.47;5098348;28;20493;-92
2022/02/16 07:53:30;;;;;;;10.60;7.03;;;;;;;6.48;100.00;98897.44;5097002;28;20111;-93
2022/02/16 07:55:56;;;;;;;11.27;7.32;;;;;;;6.44;100.00;98881.63;5097252;28;20114;-92
2022/02/16 07:58:24;;;;;;;12.68;7.80;;;;;;;6.41;100.00;98884.31;5099387;28;20064;-92
2022/02/16 08:00:49;;;;;;;11.20;6.70;;;;;;;6.55;100.00;98906.22;5101072;28;20078;-91
2022/02/16 08:03:17;;;;;;;10.73;5.88;;;;;;;6.55;100.00;98901.78;5097309;28;20060;-91
2022/02/16 08:05:43;;;;;;;10.85;6.68;;;;;;;6.61;100.00;98900.84;5097782;28;20032;-92
2022/02/16 08:08:09;;;;;;;16.70;10.35;;;;;;;6.64;100.00;98890.25;5097633;28;20067;-93
2022/02/16 08:10:37;;;;;;;22.80;13.93;;;;;;;6.86;99.89;98924.41;5098137;28;20074;-91
2022/02/16 08:13:03;;;;;;;9.75;5.88;;;;;;;6.86;99.96;98905.91;5097695;28;20036;-92
2022/02/16 08:15:31;;;;;;;10.05;6.28;;;;;;;6.91;99.18;98888.22;5097298;28;20048;-94
2022/02/16 08:17:57;;;;;;;10.13;6.20;;;;;;;7.03;97.56;98901.34;5097549;28;20044;-92
2022/02/16 08:20:25;;;;;;;9.60;5.57;;;;;;;7.05;97.25;98922.44;5097408;28;20051;-93
2022/02/16 08:22:51;;;;;;;10.20;6.00;;;;;;;6.92;98.27;98911.16;5097928;28;20058;-93
2022/02/16 08:25:18;;;;;;;12.35;6.20;;;;;;;6.98;96.89;98906.66;5097934;28;20036;-91
2022/02/16 08:27:45;;;;;;;9.57;6.07;;;;;;;7.24;95.39;98896.69;5097531;28;20436;-93
2022/02/16 08:30:13;;;;;;;11.02;6.93;;;;;;;7.39;94.13;98897.41;5096325;28;20051;-93
2022/02/16 08:32:39;;;;;;;13.15;7.65;;;;;;;7.13;97.92;98887.09;5097909;28;20048;-94
2022/02/16 08:35:08;;;;;;;11.75;6.72;;;;;;;7.68;91.35;98906.72;5097846;28;20055;-93
2022/02/16 08:37:35;;;;;;;9.77;6.20;;;;;;;7.79;90.74;98891.56;5098116;28;20047;-91
2022/02/16 08:40:01;;;;;;;11.02;7.07;;;;;;;7.85;90.34;98893.28;5097243;28;20122;-92
2022/02/16 08:42:27;;;;;;;10.93;6.78;;;;;;;8.11;90.29;98915.81;5097100;28;20090;-92
2022/02/16 08:44:55;;;;;;;10.85;7.10;;;;;;;7.98;91.82;98908.06;5097525;28;20500;-93
2022/02/16 08:47:21;;;;;;;12.25;7.25;;;;;;;8.07;92.87;98901.78;5104441;28;20040;-93
2022/02/16 08:49:47;;;;;;;10.82;6.78;;;;;;;8.19;91.06;98919.25;5098604;28;20036;-93
2022/02/16 08:52:12;;;;;;;13.90;7.57;;;;;;;8.46;92.13;98910.03;5097421;28;20489;-94
2022/02/16 08:54:40;;;;;;;13.93;7.53;;;;;;;9.03;87.59;98904.59;5096707;28;20070;-92
2022/02/16 08:57:15;;;;;;;14.10;7.90;;;;;;;9.34;85.79;98880.13;5096710;28;20083;-94
2022/02/16 08:59:41;;;;;;;14.27;8.40;;;;;;;9.80;85.40;98895.09;5101139;28;20508;-93
2022/02/16 09:02:07;;;;;;;12.18;7.50;;;;;;;10.09;82.63;98896.22;5098201;28;20040;-94
2022/02/16 09:04:33;;;;;;;13.50;6.70;;;;;;;9.86;77.90;98878.13;5097635;28;20051;-93
2022/02/16 09:10:01;;;;;;;15.10;8.95;;;;;;;10.07;80.38;98901.56;5074118;27;20387;-91
2022/02/16 09:12:28;;;;;;;14.43;7.50;;;;;;;10.24;78.71;98885.22;5073703;28;20037;-93
2022/02/16 09:15:04;;;;;;;13.95;8.30;;;;;;;10.61;76.92;98891.47;5074472;28;20116;-94
2022/02/16 09:17:31;;;;;;;15.27;8.38;;;;;;;10.81;74.12;98877.63;5073957;28;20056;-92
2022/02/16 09:19:59;;;;;;;18.25;9.05;;;;;;;11.16;73.68;98886.47;5068714;28;20042;-93
2022/02/16 09:22:27;;;;;;;17.38;9.93;;;;;;;11.38;74.07;98886.72;5069514;28;20044;-93
2022/02/16 09:24:53;;;;;;;15.30;9.25;;;;;;;11.35;72.52;98862.88;5074072;28;20052;-92
2022/02/16 09:27:22;;;;;;;16.02;8.48;;;;;;;11.63;70.41;98897.56;5071888;28;20048;-93
2022/02/16 09:29:49;;;;;;;15.57;9.80;;;;;;;11.54;69.11;98866.75;5074203;28;20100;-93
2022/02/16 09:32:15;;;;;;;17.42;10.50;;;;;;;11.57;70.79;98865.78;5071848;28;21054;-94
2022/02/16 09:34:43;;;;;;;17.00;9.15;;;;;;;11.58;69.09;98897.69;5074843;28;20103;-93
2022/02/16 09:37:09;;;;;;;59.78;12.07;;;;;;;11.11;69.24;98859.97;5074310;28;20119;-92
2022/02/16 09:39:35;;;;;;;17.63;10.40;;;;;;;11.11;71.92;98878.59;5075365;28;20130;-92
2022/02/16 09:42:01;;;;;;;17.77;8.95;;;;;;;11.06;71.07;98853.88;5075305;28;20044;-91
2022/02/16 09:44:34;;;;;;;16.63;9.63;;;;;;;11.12;71.77;98853.72;5074280;28;20071;-92
2022/02/16 09:47:02;;;;;;;16.38;10.05;;;;;;;11.27;71.99;98873.72;5073215;28;20045;-93
2022/02/16 09:49:27;;;;;;;18.52;9.32;;;;;;;11.61;69.71;98900.25;5074360;28;20457;-93
2022/02/16 09:51:53;;;;;;;17.63;10.32;;;;;;;11.67;70.66;98886.75;5071980;28;20083;-90
2022/02/16 09:54:19;;;;;;;20.45;8.13;;;;;;;11.38;70.12;98886.72;5070876;28;20045;-93
2022/02/16 09:56:45;;;;;;;14.95;8.45;;;;;;;11.66;69.29;98869.03;5071019;28;20113;-93
2022/02/16 09:59:11;;;;;;;18.98;9.60;;;;;;;12.01;68.67;98876.88;5071022;28;20041;-94
2022/02/16 10:04:37;;;;;;;17.73;10.57;;;;;;;12.40;68.23;98885.41;5114993;27;20391;-94
2022/02/16 10:07:20;;;;;;;19.25;10.13;;;;;;;12.53;66.39;98870.78;5106615;28;20465;-93
2022/02/16 10:09:46;;;;;;;16.10;9.73;;;;;;;12.62;66.54;98874.03;5111567;28;20047;-93
2022/02/16 10:12:12;;;;;;;15.55;9.38;;;;;;;12.48;66.52;98883.38;5112811;28;20044;-93
2022/02/16 10:14:39;;;;;;;17.73;9.13;;;;;;;12.54;65.96;98860.97;5113893;28;20031;-93
2022/02/16 10:17:16;;;;;;;19.30;10.93;;;;;;;12.69;65.01;98867.59;5111032;28;20068;-94
2022/02/16 10:19:49;;;;;;;15.63;9.07;;;;;;;13.01;64.32;98866.47;5111756;28;20137;-92
2022/02/16 10:22:15;;;;;;;14.40;8.93;;;;;;;12.71;62.18;98860.41;5099060;28;20056;-93
2022/02/16 10:24:43;;;;;;;16.17;9.77;;;;;;;12.63;65.13;98857.97;5106062;28;20044;-94
2022/02/16 10:27:10;;;;;;;16.40;9.20;;;;;;;12.79;64.35;98857.44;5112506;28;20047;-92
2022/02/16 10:29:36;;;;;;;18.40;9.52;;;;;;;12.82;62.28;98850.22;5113950;28;20367;-94
2022/02/16 10:32:03;;;;;;;16.00;9.50;;;;;;;13.01;62.78;98862.91;5111793;28;20039;-93
2022/02/16 10:34:48;;;;;;;15.43;9.82;;;;;;;13.19;61.21;98858.72;5111929;28;20040;-93
2022/02/16 10:37:15;;;;;;;13.65;9.55;;;;;;;12.74;61.10;98854.94;5112172;28;20392;-94
2022/02/16 10:39:41;;;;;;;16.80;9.27;;;;;;;12.27;61.07;98860.06;5112740;28;20044;-93
2022/02/16 10:42:11;;;;;;;17.55;9.82;;;;;;;11.91;63.52;98866.53;5111839;28;20036;-94
2022/02/16 10:44:37;;;;;;;17.25;9.68;;;;;;;11.52;59.83;98831.28;5111374;28;20070;-94
2022/02/16 10:47:05;;;;;;;14.20;9.40;;;;;;;11.26;64.04;98824.94;5113271;28;20032;-94
2022/02/16 10:49:33;;;;;;;15.13;8.40;;;;;;;11.52;62.72;98836.63;5114050;28;20039;-93
2022/02/16 10:52:06;;;;;;;12.93;8.25;;;;;;;12.08;60.55;98852.69;5118905;27;20032;-95
2022/02/16 10:54:32;;;;;;;16.95;8.90;;;;;;;11.87;62.67;98816.00;5111752;28;20597;-94
2022/02/16 10:56:59;;;;;;;14.23;7.80;;;;;;;11.75;61.95;98819.91;5121382;28;20047;-95
2022/02/16 10:59:25;;;;;;;13.93;7.70;;;;;;;11.71;58.73;98808.50;5114166;28;20552;-94
2022/02/16 11:01:52;;;;;;;11.60;7.35;;;;;;;11.49;60.29;98812.72;5112416;28;20139;-94
2022/02/16 11:04:18;;;;;;;9.93;6.60;;;;;;;11.70;60.89;98828.06;5112525;28;20109;-93
2022/02/16 11:06:47;;;;;;;11.82;7.32;;;;;;;11.84;59.74;98811.66;5113842;28;20044;-95
2022/02/16 11:09:17;;;;;;;11.00;6.97;;;;;;;11.98;59.72;98797.91;5107600;28;20048;-95
2022/02/16 11:11:44;;;;;;;15.90;9.05;;;;;;;12.35;58.46;98795.84;5111636;28;20401;-94
2022/02/16 11:14:11;;;;;;;12.23;7.47;;;;;;;11.95;60.61;98821.13;5108233;28;20096;-93
2022/02/16 11:16:38;;;;;;;43.25;20.45;;;;;;;11.98;60.48;98813.91;5091526;28;20516;-93
2022/02/16 11:19:19;;;;;;;15.80;9.40;;;;;;;11.22;64.17;98793.13;5097721;28;20062;-93
2022/02/16 11:21:57;;;;;;;16.88;10.02;;;;;;;10.87;65.96;98795.88;5097152;28;20516;-93
2022/02/16 11:24:33;;;;;;;18.95;10.73;;;;;;;10.35;67.61;98813.22;5097463;28;20062;-93
2022/02/16 11:26:59;;;;;;;17.27;10.57;;;;;;;9.83;67.66;98801.19;5100589;28;20051;-95
2022/02/16 11:29:41;;;;;;;22.10;12.35;;;;;;;9.94;69.63;98788.53;5098794;28;20044;-94